Time;durP1;ratioP1;P1;durP2;ratioP2;P2;SDS_P1;SDS_P2;PMS_P1;PMS_P2;Temp;Humidity;BMP_temperature;BMP_pressure;BME280_temperature;BME280_humidity;BME280_pressure;Samples;Min_cycle;Max_cycle;Signal;HPM_P1;HPM_P2
2021/12/11 00:00:09;;;;;;;2.33;2.13;;;3.40;99.90;;;;;;4992938;28;20203;-75
2021/12/11 00:02:36;;;;;;;2.40;2.20;;;3.50;99.90;;;;;;5010422;28;20293;-74
2021/12/11 00:05:04;;;;;;;2.97;2.70;;;3.50;99.90;;;;;;4992125;28;20282;-75
2021/12/11 00:07:31;;;;;;;4.28;2.78;;;3.50;99.90;;;;;;5005460;28;20567;-74
2021/12/11 00:10:05;;;;;;;3.22;2.92;;;3.40;99.90;;;;;;5010361;28;20205;-75
2021/12/11 00:12:53;;;;;;;3.47;3.17;;;3.40;99.90;;;;;;4993700;28;21553;-75
2021/12/11 00:15:24;;;;;;;3.40;3.10;;;3.50;99.90;;;;;;4999073;28;20362;-74
2021/12/11 00:17:58;;;;;;;4.28;2.65;;;3.40;99.90;;;;;;4992313;28;20215;-74
2021/12/11 00:20:30;;;;;;;2.75;2.08;;;3.30;99.90;;;;;;5008035;28;20218;-74
2021/12/11 00:22:58;;;;;;;2.50;2.30;;;3.20;99.90;;;;;;5005481;28;20231;-75
2021/12/11 00:25:26;;;;;;;2.30;2.10;;;3.10;99.90;;;;;;4995912;28;20207;-74
2021/12/11 00:28:01;;;;;;;2.40;2.20;;;3.00;99.90;;;;;;5007398;28;20889;-74
2021/12/11 00:30:31;;;;;;;2.55;2.00;;;2.90;99.90;;;;;;4997575;28;20203;-75
2021/12/11 00:33:00;;;;;;;2.30;2.10;;;2.90;99.90;;;;;;5000356;28;20217;-74
2021/12/11 00:35:27;;;;;;;2.65;2.45;;;2.80;99.90;;;;;;4993574;28;20263;-74
2021/12/11 00:38:02;;;;;;;2.67;2.47;;;2.70;99.90;;;;;;4993922;28;20285;-74
2021/12/11 00:40:31;;;;;;;2.63;2.40;;;2.70;99.90;;;;;;4997043;28;20223;-74
2021/12/11 00:43:03;;;;;;;2.45;2.28;;;2.70;99.90;;;;;;5009453;28;20202;-74
2021/12/11 00:45:33;;;;;;;3.50;2.80;;;2.60;99.90;;;;;;5006028;28;20250;-74
2021/12/11 00:48:03;;;;;;;2.80;2.60;;;2.60;99.90;;;;;;4995320;28;20840;-74
2021/12/11 00:50:33;;;;;;;3.05;2.85;;;2.60;99.90;;;;;;4994763;28;20203;-74
2021/12/11 00:53:09;;;;;;;2.80;2.60;;;2.50;99.90;;;;;;4996340;28;20274;-74
2021/12/11 00:55:40;;;;;;;2.83;2.58;;;2.40;99.90;;;;;;5014226;28;20193;-74
2021/12/11 00:58:10;;;;;;;3.28;2.60;;;2.40;99.90;;;;;;5007772;28;20221;-75
2021/12/11 01:00:43;;;;;;;2.80;2.50;;;2.40;99.90;;;;;;5008142;28;20223;-74
2021/12/11 01:03:14;;;;;;;3.40;3.20;;;2.40;99.90;;;;;;5012060;28;20571;-74
2021/12/11 01:05:45;;;;;;;3.13;2.92;;;2.40;99.90;;;;;;5012741;28;20205;-74
2021/12/11 01:08:16;;;;;;;2.92;2.70;;;2.40;99.90;;;;;;5005511;28;20616;-74
2021/12/11 01:10:46;;;;;;;2.58;2.38;;;2.40;99.90;;;;;;5010910;28;20196;-74
2021/12/11 01:13:17;;;;;;;2.72;2.53;;;2.40;99.90;;;;;;4995668;28;20199;-74
2021/12/11 01:15:53;;;;;;;2.60;2.40;;;2.30;99.90;;;;;;5008242;28;20655;-74
2021/12/11 01:18:23;;;;;;;3.05;2.75;;;2.30;99.90;;;;;;5006627;28;20312;-74
2021/12/11 01:20:58;;;;;;;2.70;2.45;;;2.30;99.90;;;;;;5004069;28;20302;-74
2021/12/11 01:23:45;;;;;;;2.67;2.33;;;2.30;99.90;;;;;;5013387;28;20198;-74
2021/12/11 01:26:17;;;;;;;3.20;2.90;;;2.30;99.90;;;;;;5003828;28;20206;-74
2021/12/11 01:28:45;;;;;;;2.60;2.40;;;2.30;99.90;;;;;;5003297;28;20225;-74
2021/12/11 01:31:15;;;;;;;3.08;2.88;;;2.30;99.90;;;;;;4998791;28;20554;-74
2021/12/11 01:33:42;;;;;;;3.10;2.80;;;2.30;99.90;;;;;;5012188;28;20230;-74
2021/12/11 01:36:10;;;;;;;2.70;2.50;;;2.30;99.90;;;;;;5011846;28;20199;-74
2021/12/11 01:38:38;;;;;;;3.08;2.88;;;2.30;99.90;;;;;;5009609;28;20314;-74
2021/12/11 01:41:12;;;;;;;3.00;2.80;;;2.30;99.90;;;;;;4999623;28;20786;-74
2021/12/11 01:43:42;;;;;;;3.05;2.85;;;2.30;99.90;;;;;;4993368;28;20211;-74
2021/12/11 01:46:09;;;;;;;2.13;2.03;;;2.30;99.90;;;;;;4993266;28;20205;-74
2021/12/11 01:48:40;;;;;;;2.40;2.00;;;2.30;99.90;;;;;;4999471;28;20269;-74
2021/12/11 01:51:19;;;;;;;2.30;2.10;;;2.30;99.90;;;;;;5006403;28;20205;-74
2021/12/11 01:53:49;;;;;;;2.35;2.15;;;2.30;99.90;;;;;;5004732;28;20182;-74
2021/12/11 01:56:20;;;;;;;2.53;2.33;;;2.30;99.90;;;;;;5003625;28;20412;-74
2021/12/11 01:58:56;;;;;;;2.20;2.10;;;2.30;99.90;;;;;;5012492;28;20518;-74
2021/12/11 02:01:27;;;;;;;2.22;2.03;;;2.30;99.90;;;;;;5000352;28;20272;-74
2021/12/11 02:03:56;;;;;;;1.90;1.80;;;2.30;99.90;;;;;;4997052;28;20211;-74
2021/12/11 02:06:28;;;;;;;2.50;2.28;;;2.30;99.90;;;;;;4993203;28;20203;-74
2021/12/11 02:08:55;;;;;;;2.50;2.30;;;2.30;99.90;;;;;;5002787;28;20203;-74
2021/12/11 02:11:25;;;;;;;2.30;2.10;;;2.30;99.90;;;;;;5009192;28;20198;-75
2021/12/11 02:13:57;;;;;;;2.42;2.30;;;2.30;99.90;;;;;;5010428;28;20666;-75
2021/12/11 02:16:29;;;;;;;2.97;2.15;;;2.40;99.90;;;;;;5012080;28;20186;-74
2021/12/11 02:18:59;;;;;;;2.28;2.13;;;2.40;99.90;;;;;;5002191;28;20195;-74
2021/12/11 02:21:29;;;;;;;2.30;2.10;;;2.40;99.90;;;;;;4999517;28;20230;-74
2021/12/11 02:24:03;;;;;;;2.53;2.33;;;2.40;99.90;;;;;;4995637;28;20289;-74
2021/12/11 02:26:32;;;;;;;3.00;2.80;;;2.40;99.90;;;;;;5000068;28;20210;-74
2021/12/11 02:29:05;;;;;;;2.67;2.47;;;2.40;99.90;;;;;;5000268;28;20205;-74
2021/12/11 02:31:36;;;;;;;3.50;3.20;;;2.10;99.90;;;;;;4995843;28;20552;-74
2021/12/11 02:34:09;;;;;;;3.10;2.90;;;2.40;99.90;;;;;;4993381;28;20799;-74
2021/12/11 02:36:41;;;;;;;3.80;3.55;;;2.40;99.90;;;;;;4995636;28;20255;-74
2021/12/11 02:39:15;;;;;;;3.55;3.25;;;2.40;99.90;;;;;;4993320;28;20557;-74
2021/12/11 02:41:49;;;;;;;3.50;3.30;;;2.40;99.90;;;;;;4999809;28;20585;-74
2021/12/11 02:44:21;;;;;;;3.70;3.50;;;2.40;99.90;;;;;;5010010;28;20209;-74
2021/12/11 02:46:55;;;;;;;3.85;3.55;;;2.40;99.90;;;;;;4997991;28;20221;-74
2021/12/11 02:49:26;;;;;;;3.53;3.25;;;2.40;99.90;;;;;;5001317;28;20230;-74
2021/12/11 02:51:57;;;;;;;4.80;4.50;;;2.50;99.90;;;;;;5000292;28;20195;-74
2021/12/11 02:54:31;;;;;;;4.85;4.50;;;2.50;99.90;;;;;;5006514;28;20195;-74
2021/12/11 02:57:01;;;;;;;5.32;4.88;;;2.40;99.90;;;;;;5007316;28;20687;-75
2021/12/11 02:59:31;;;;;;;5.05;4.65;;;2.40;99.90;;;;;;5000259;28;20210;-74
2021/12/11 03:02:05;;;;;;;5.07;4.68;;;2.40;99.90;;;;;;5001570;28;20317;-74
2021/12/11 03:04:38;;;;;;;5.30;4.80;;;2.50;99.90;;;;;;4997402;28;20187;-74
2021/12/11 03:07:08;;;;;;;6.18;5.68;;;2.50;99.90;;;;;;4997925;28;20749;-74
2021/12/11 03:09:43;;;;;;;5.93;5.43;;;2.50;99.90;;;;;;4995516;28;20195;-74
2021/12/11 03:12:12;;;;;;;6.90;6.40;;;2.50;99.90;;;;;;5003318;28;20213;-75
2021/12/11 03:14:41;;;;;;;6.30;5.80;;;2.50;99.90;;;;;;5003671;28;20199;-74
2021/12/11 03:17:08;;;;;;;6.03;5.53;;;2.50;99.90;;;;;;4995443;28;20573;-74
2021/12/11 03:19:40;;;;;;;6.70;6.20;;;2.50;99.90;;;;;;5005663;28;20197;-74
2021/12/11 03:22:10;;;;;;;6.80;6.30;;;2.60;99.90;;;;;;4998974;28;20283;-75
2021/12/11 03:24:39;;;;;;;7.35;6.75;;;2.60;99.90;;;;;;4997702;28;20204;-74
2021/12/11 03:27:06;;;;;;;8.50;7.80;;;2.60;99.90;;;;;;5000766;28;20233;-75
2021/12/11 03:29:34;;;;;;;8.10;7.50;;;2.60;99.90;;;;;;5001918;28;20190;-74
2021/12/11 03:32:03;;;;;;;8.50;7.80;;;2.60;99.90;;;;;;5000612;28;20207;-74
2021/12/11 03:34:30;;;;;;;7.88;7.25;;;2.60;99.90;;;;;;4993379;28;20202;-74
2021/12/11 03:37:00;;;;;;;8.10;7.50;;;2.60;99.90;;;;;;4992379;28;20226;-74
2021/12/11 03:39:29;;;;;;;8.15;7.40;;;2.60;99.90;;;;;;4992715;28;20658;-74
2021/12/11 03:41:59;;;;;;;8.00;7.40;;;2.70;99.90;;;;;;4998607;28;20227;-74
2021/12/11 03:44:32;;;;;;;8.13;7.53;;;2.70;99.90;;;;;;4992656;28;20192;-74
2021/12/11 03:47:02;;;;;;;8.48;7.78;;;2.70;99.90;;;;;;4992708;28;20222;-74
2021/12/11 03:49:29;;;;;;;8.30;7.70;;;2.70;99.90;;;;;;5009705;28;20260;-74
2021/12/11 03:51:56;;;;;;;8.27;7.55;;;2.70;99.90;;;;;;5009656;28;20285;-74
2021/12/11 03:54:27;;;;;;;8.35;7.65;;;2.70;99.90;;;;;;5006024;28;20201;-74
2021/12/11 03:56:55;;;;;;;7.95;7.35;;;2.70;99.90;;;;;;4991891;28;20219;-74
2021/12/11 03:59:24;;;;;;;8.10;7.45;;;2.70;99.90;;;;;;4993725;28;20190;-74
2021/12/11 04:01:54;;;;;;;8.13;7.45;;;2.70;99.90;;;;;;4990784;28;20230;-73
2021/12/11 04:04:26;;;;;;;9.32;8.52;;;2.70;99.90;;;;;;4994146;28;20195;-74
2021/12/11 04:06:55;;;;;;;9.13;8.43;;;2.70;99.90;;;;;;5009589;28;20215;-74
2021/12/11 04:09:23;;;;;;;9.60;8.75;;;2.80;99.90;;;;;;5001786;28;20220;-74
2021/12/11 04:11:52;;;;;;;8.95;8.20;;;2.80;99.90;;;;;;5001493;28;20195;-74
2021/12/11 04:14:23;;;;;;;8.95;8.25;;;2.80;99.90;;;;;;5009069;28;20220;-74
2021/12/11 04:16:53;;;;;;;9.30;8.50;;;2.80;99.90;;;;;;5002716;28;20220;-74
2021/12/11 04:19:22;;;;;;;9.13;8.35;;;2.80;99.90;;;;;;4998641;28;20193;-74
2021/12/11 04:21:49;;;;;;;10.10;9.30;;;2.80;99.90;;;;;;4996951;28;20247;-74
2021/12/11 04:24:23;;;;;;;9.27;8.48;;;2.80;99.90;;;;;;5010647;28;20281;-74
2021/12/11 04:26:52;;;;;;;9.98;9.18;;;2.80;99.90;;;;;;5004785;28;20258;-74
2021/12/11 04:29:19;;;;;;;10.10;9.30;;;2.80;99.90;;;;;;5011768;28;20240;-74
2021/12/11 04:31:47;;;;;;;10.23;9.35;;;2.80;99.90;;;;;;4996850;28;20261;-75
2021/12/11 04:34:18;;;;;;;9.85;9.05;;;2.90;99.90;;;;;;5012926;28;20245;-74
2021/12/11 04:36:52;;;;;;;10.73;9.82;;;2.90;99.90;;;;;;5008886;28;20223;-74
2021/12/11 04:39:23;;;;;;;8.95;8.25;;;2.90;99.90;;;;;;5013624;28;20672;-74
2021/12/11 04:41:57;;;;;;;9.10;8.30;;;2.90;99.90;;;;;;5002335;28;20378;-75
2021/12/11 04:44:32;;;;;;;12.02;11.02;;;2.90;99.90;;;;;;5012721;28;20557;-74
2021/12/11 04:47:00;;;;;;;11.98;10.98;;;2.90;99.90;;;;;;5001319;28;20217;-75
2021/12/11 04:49:35;;;;;;;11.70;10.70;;;2.90;99.90;;;;;;5004194;28;20230;-74
2021/12/11 04:52:10;;;;;;;9.70;8.95;;;2.90;99.90;;;;;;5002649;28;20191;-74
2021/12/11 04:54:50;;;;;;;11.20;10.20;;;2.90;99.90;;;;;;4994499;28;20245;-74
2021/12/11 05:00:20;;;;;;;11.32;10.43;;;2.90;99.90;;;;;;4964815;28;20243;-74
2021/12/11 05:03:12;;;;;;;10.90;10.00;;;2.90;99.90;;;;;;5003198;28;20214;-74
2021/12/11 05:05:55;;;;;;;12.02;11.02;;;2.90;99.90;;;;;;5008944;28;20288;-74
2021/12/11 05:11:11;;;;;;;10.30;9.45;;;3.00;99.90;;;;;;4994346;28;20194;-74
2021/12/11 05:13:39;;;;;;;10.48;9.68;;;3.00;99.90;;;;;;5003342;28;20196;-74
2021/12/11 05:16:08;;;;;;;11.07;10.10;;;3.00;99.90;;;;;;5009282;28;20217;-74
2021/12/11 05:18:37;;;;;;;11.25;10.25;;;3.00;99.90;;;;;;5007019;28;20199;-75
2021/12/11 05:21:15;;;;;;;10.32;9.52;;;3.00;99.90;;;;;;5001340;28;20198;-74
2021/12/11 05:23:42;;;;;;;10.27;9.45;;;3.00;99.90;;;;;;5006982;28;20230;-74
2021/12/11 05:26:09;;;;;;;8.68;8.00;;;3.00;99.90;;;;;;5000159;28;20223;-74
2021/12/11 05:28:37;;;;;;;9.65;8.93;;;3.00;99.90;;;;;;4998973;28;20294;-75
2021/12/11 05:31:07;;;;;;;8.88;8.18;;;2.90;99.90;;;;;;5003976;28;20683;-74
2021/12/11 05:33:35;;;;;;;8.82;8.07;;;2.90;99.90;;;;;;5002493;28;20608;-74
2021/12/11 05:36:03;;;;;;;8.80;8.10;;;2.90;99.90;;;;;;5011172;28;20289;-74
2021/12/11 05:38:32;;;;;;;9.88;9.18;;;2.90;99.90;;;;;;5001754;28;20211;-74
2021/12/11 05:41:03;;;;;;;9.93;9.13;;;2.90;99.90;;;;;;5004555;28;20203;-74
2021/12/11 05:43:32;;;;;;;9.80;9.02;;;2.90;99.90;;;;;;5003109;28;20719;-74
2021/12/11 05:45:59;;;;;;;9.77;9.00;;;2.90;99.90;;;;;;4992921;28;20706;-74
2021/12/11 05:48:28;;;;;;;10.15;9.25;;;2.90;99.90;;;;;;4994846;28;20223;-75
2021/12/11 05:51:00;;;;;;;11.32;10.43;;;2.90;99.90;;;;;;5012334;28;20586;-74
2021/12/11 05:53:30;;;;;;;10.25;9.45;;;2.90;99.90;;;;;;5004741;28;20199;-75
2021/12/11 05:56:01;;;;;;;10.20;9.40;;;2.90;99.90;;;;;;5009261;28;20209;-74
2021/12/11 05:58:45;;;;;;;9.25;8.55;;;2.90;99.90;;;;;;5000114;28;20199;-74
2021/12/11 06:01:14;;;;;;;10.30;9.50;;;2.90;99.90;;;;;;5001089;28;20245;-74
2021/12/11 06:03:41;;;;;;;11.35;10.40;;;2.90;99.90;;;;;;4994683;28;20369;-74
2021/12/11 06:06:08;;;;;;;10.73;9.90;;;3.00;99.90;;;;;;5001841;28;20615;-75
2021/12/11 06:08:35;;;;;;;10.00;9.18;;;3.00;99.90;;;;;;5003483;28;20547;-75
2021/12/11 06:11:05;;;;;;;10.65;9.82;;;3.00;99.90;;;;;;4996307;28;20205;-73
2021/12/11 06:13:33;;;;;;;10.88;9.98;;;3.00;99.90;;;;;;4998795;28;20606;-74
2021/12/11 06:16:02;;;;;;;11.85;10.85;;;3.00;99.90;;;;;;4992790;28;20218;-74
2021/12/11 06:18:29;;;;;;;12.68;11.57;;;3.00;99.90;;;;;;5002431;28;20203;-75
2021/12/11 06:20:56;;;;;;;14.32;13.13;;;3.00;99.90;;;;;;4995660;28;20199;-75
2021/12/11 06:23:24;;;;;;;12.63;11.63;;;3.00;99.90;;;;;;5001680;28;20222;-75
2021/12/11 06:25:53;;;;;;;12.45;11.43;;;3.00;99.90;;;;;;5009991;28;20209;-74
2021/12/11 06:28:22;;;;;;;13.30;12.18;;;3.00;99.90;;;;;;5008424;28;20795;-74
2021/12/11 06:30:50;;;;;;;13.00;11.90;;;3.00;99.90;;;;;;5012273;28;20198;-74
2021/12/11 06:33:17;;;;;;;11.82;10.82;;;3.00;99.90;;;;;;4997840;28;20203;-75
2021/12/11 06:35:47;;;;;;;13.80;12.60;;;3.00;99.90;;;;;;5010260;28;20281;-74
2021/12/11 06:38:21;;;;;;;12.65;11.50;;;3.10;99.90;;;;;;5005351;28;20224;-74
2021/12/11 06:40:48;;;;;;;13.90;12.60;;;3.10;99.90;;;;;;5010716;28;20194;-74
2021/12/11 06:43:15;;;;;;;11.98;10.88;;;3.10;99.90;;;;;;4992004;28;20310;-74
2021/12/11 06:45:45;;;;;;;14.18;12.88;;;3.00;99.90;;;;;;5002002;28;20195;-75
2021/12/11 06:48:13;;;;;;;13.63;12.35;;;3.00;99.90;;;;;;5002784;28;20626;-75
2021/12/11 06:50:40;;;;;;;13.02;11.73;;;3.00;99.90;;;;;;5001129;28;20197;-75
2021/12/11 06:53:11;;;;;;;12.38;11.27;;;3.10;99.90;;;;;;4992085;28;20648;-74
2021/12/11 06:55:38;;;;;;;13.00;11.80;;;3.10;99.90;;;;;;5004559;28;20183;-74
2021/12/11 06:58:06;;;;;;;12.25;11.15;;;3.10;99.90;;;;;;4999366;28;20674;-74
2021/12/11 07:00:33;;;;;;;14.18;12.88;;;3.00;99.90;;;;;;5011581;28;20195;-74
2021/12/11 07:03:02;;;;;;;14.05;12.85;;;3.00;99.90;;;;;;4993640;28;20532;-75
2021/12/11 07:05:29;;;;;;;13.95;12.75;;;3.00;99.90;;;;;;5009290;28;20202;-74
2021/12/11 07:07:56;;;;;;;13.05;11.95;;;3.10;99.90;;;;;;4999956;28;20331;-75
2021/12/11 07:10:23;;;;;;;12.43;11.32;;;3.10;99.90;;;;;;5005517;28;20201;-75
2021/12/11 07:12:51;;;;;;;12.70;11.60;;;3.10;99.90;;;;;;4991675;28;20639;-74
2021/12/11 07:15:18;;;;;;;11.20;10.20;;;3.00;99.90;;;;;;4995978;28;20207;-75
2021/12/11 07:17:45;;;;;;;11.68;10.57;;;3.00;99.90;;;;;;5002451;28;20222;-74
2021/12/11 07:20:15;;;;;;;13.15;11.85;;;3.00;99.90;;;;;;5009581;28;20221;-74
2021/12/11 07:22:42;;;;;;;12.98;11.88;;;3.10;99.90;;;;;;5001538;28;20249;-74
2021/12/11 07:25:15;;;;;;;13.02;11.93;;;3.00;99.90;;;;;;4998311;28;20201;-74
2021/12/11 07:27:43;;;;;;;13.60;12.40;;;3.00;99.90;;;;;;4998505;28;20223;-74
2021/12/11 07:30:11;;;;;;;13.80;12.60;;;3.10;99.90;;;;;;4995482;28;20202;-75
2021/12/11 07:32:38;;;;;;;14.45;13.20;;;3.10;99.90;;;;;;4993159;28;20245;-75
2021/12/11 07:35:06;;;;;;;14.00;12.70;;;3.20;99.90;;;;;;4992924;28;20646;-82
2021/12/11 07:37:35;;;;;;;13.30;12.10;;;3.20;99.90;;;;;;4997451;28;20214;-75
2021/12/11 07:40:02;;;;;;;12.40;11.30;;;3.20;99.90;;;;;;4992039;28;20195;-75
2021/12/11 07:42:29;;;;;;;12.10;11.00;;;3.10;99.90;;;;;;4998666;28;20663;-75
2021/12/11 07:44:56;;;;;;;12.10;11.00;;;3.10;99.90;;;;;;5012693;28;20531;-74
2021/12/11 07:47:23;;;;;;;11.82;10.82;;;3.10;99.90;;;;;;5008122;28;20218;-75
2021/12/11 07:49:50;;;;;;;11.35;10.35;;;3.00;99.90;;;;;;5008257;28;20199;-75
2021/12/11 07:52:17;;;;;;;13.15;11.95;;;3.10;99.90;;;;;;4998206;28;20213;-75
2021/12/11 07:54:45;;;;;;;12.68;11.57;;;3.10;99.90;;;;;;5001025;28;20234;-74
2021/12/11 07:57:12;;;;;;;13.40;12.20;;;3.10;99.90;;;;;;5002009;28;20326;-75
2021/12/11 07:59:39;;;;;;;12.50;11.35;;;3.10;99.90;;;;;;5005199;28;20643;-75
2021/12/11 08:02:06;;;;;;;13.50;12.15;;;3.20;99.90;;;;;;5007439;28;20663;-74
2021/12/11 08:04:34;;;;;;;13.65;12.35;;;3.10;99.90;;;;;;5002898;28;20228;-75
2021/12/11 08:07:01;;;;;;;13.57;12.30;;;3.10;99.90;;;;;;5008477;28;20778;-75
2021/12/11 08:09:28;;;;;;;14.10;12.80;;;3.10;99.90;;;;;;5007554;28;20203;-74
2021/12/11 08:11:57;;;;;;;15.48;13.98;;;3.10;99.90;;;;;;4997435;28;20284;-74
2021/12/11 08:14:26;;;;;;;14.90;13.40;;;3.20;99.90;;;;;;5003591;28;20257;-82
2021/12/11 08:16:57;;;;;;;13.73;12.32;;;3.20;99.90;;;;;;5009217;28;20386;-75
2021/12/11 08:19:27;;;;;;;14.65;13.20;;;3.20;99.90;;;;;;5001710;28;20282;-75
2021/12/11 08:21:57;;;;;;;15.52;14.00;;;3.30;99.90;;;;;;5005855;28;20218;-75
2021/12/11 08:24:26;;;;;;;14.57;13.27;;;3.50;99.90;;;;;;4999017;28;20226;-74
2021/12/11 08:26:58;;;;;;;15.35;13.75;;;3.60;99.90;;;;;;5006700;28;20218;-76
2021/12/11 08:29:25;;;;;;;15.10;13.80;;;3.60;99.90;;;;;;5011270;28;20194;-75
2021/12/11 08:31:56;;;;;;;15.45;14.15;;;3.50;99.90;;;;;;5004922;28;20187;-75
2021/12/11 08:34:23;;;;;;;14.55;13.25;;;3.60;99.90;;;;;;5001921;28;20203;-76
2021/12/11 08:36:51;;;;;;;14.70;13.40;;;3.60;99.90;;;;;;5005162;28;20264;-83
2021/12/11 08:39:19;;;;;;;15.85;14.43;;;3.60;99.90;;;;;;4998614;28;20673;-75
2021/12/11 08:41:49;;;;;;;17.63;15.93;;;3.50;99.90;;;;;;5004645;28;20198;-75
2021/12/11 08:44:18;;;;;;;14.88;13.48;;;3.50;99.90;;;;;;4998117;28;20230;-75
2021/12/11 08:46:50;;;;;;;15.50;14.10;;;3.40;99.90;;;;;;5006543;28;20241;-74
2021/12/11 08:49:22;;;;;;;15.90;14.45;;;3.50;99.90;;;;;;4998666;28;20208;-75
2021/12/11 08:51:52;;;;;;;16.20;14.70;;;3.50;99.90;;;;;;5002997;28;20202;-75
2021/12/11 08:54:20;;;;;;;16.17;14.57;;;3.50;99.90;;;;;;4997973;28;20211;-75
2021/12/11 08:56:47;;;;;;;15.73;14.23;;;3.40;99.90;;;;;;4993199;28;20715;-75
2021/12/11 08:59:18;;;;;;;15.50;14.00;;;3.40;99.90;;;;;;4992174;28;20608;-75
2021/12/11 09:01:52;;;;;;;14.82;13.52;;;3.50;99.90;;;;;;5002848;28;20202;-75
2021/12/11 09:04:23;;;;;;;14.38;13.07;;;3.60;99.90;;;;;;4994702;28;20581;-75
2021/12/11 09:06:55;;;;;;;15.90;14.40;;;3.60;99.90;;;;;;4995230;28;20217;-75
2021/12/11 09:09:26;;;;;;;18.35;16.65;;;3.60;99.90;;;;;;4995990;28;20203;-75
2021/12/11 09:11:56;;;;;;;20.45;18.30;;;3.60;99.90;;;;;;4994846;28;20218;-75
2021/12/11 09:14:28;;;;;;;23.25;19.65;;;3.50;99.90;;;;;;4998066;28;20203;-75
2021/12/11 09:17:04;;;;;;;21.75;19.45;;;3.40;99.90;;;;;;5001183;28;20368;-75
2021/12/11 09:19:35;;;;;;;22.73;20.25;;;3.50;99.90;;;;;;4998664;28;20919;-75
2021/12/11 09:22:06;;;;;;;20.95;18.80;;;3.50;99.90;;;;;;4998916;28;21254;-75
2021/12/11 09:24:37;;;;;;;22.13;19.92;;;3.60;99.90;;;;;;5000238;28;20666;-75
2021/12/11 09:27:11;;;;;;;20.60;18.60;;;3.60;99.90;;;;;;5008059;28;20563;-75
2021/12/11 09:29:43;;;;;;;20.58;18.38;;;3.70;99.90;;;;;;4992377;28;20555;-75
2021/12/11 09:32:15;;;;;;;20.55;18.35;;;3.70;99.90;;;;;;5003940;28;20194;-75
2021/12/11 09:34:48;;;;;;;19.70;16.75;;;3.80;99.90;;;;;;4999512;28;20369;-76
2021/12/11 09:37:16;;;;;;;19.45;17.42;;;3.80;99.90;;;;;;5001716;28;20753;-80
2021/12/11 09:39:48;;;;;;;17.20;15.50;;;3.90;99.90;;;;;;4993847;28;20566;-77
2021/12/11 09:42:15;;;;;;;16.85;14.73;;;3.80;99.90;;;;;;5000789;28;20205;-75
2021/12/11 09:44:47;;;;;;;14.48;12.98;;;3.80;99.90;;;;;;4995247;28;20223;-75
2021/12/11 09:47:18;;;;;;;14.90;13.52;;;3.90;99.90;;;;;;4994485;28;20231;-75
2021/12/11 09:49:52;;;;;;;13.18;11.98;;;4.00;99.90;;;;;;4996625;28;20203;-75
2021/12/11 09:52:24;;;;;;;14.13;12.75;;;4.00;99.90;;;;;;4999795;28;20214;-75
2021/12/11 09:54:54;;;;;;;12.90;11.73;;;4.10;99.90;;;;;;5001964;28;20194;-75
2021/12/11 09:57:24;;;;;;;13.52;12.23;;;4.10;99.90;;;;;;5010114;28;20218;-75
2021/12/11 09:59:56;;;;;;;13.43;12.23;;;4.20;99.90;;;;;;5004532;28;20199;-75
2021/12/11 10:02:27;;;;;;;13.43;12.23;;;4.30;99.90;;;;;;5000485;28;20202;-75
2021/12/11 10:05:00;;;;;;;12.18;11.07;;;4.50;99.90;;;;;;5011310;28;20829;-75
2021/12/11 10:07:34;;;;;;;12.50;11.40;;;4.60;99.90;;;;;;5009846;28;20780;-75
2021/12/11 10:10:13;;;;;;;13.02;11.82;;;4.40;99.90;;;;;;4992524;28;20207;-75
2021/12/11 10:12:43;;;;;;;11.30;10.25;;;4.40;99.90;;;;;;5001139;28;20203;-75
2021/12/11 10:15:17;;;;;;;13.05;10.43;;;4.40;99.90;;;;;;5009524;28;20210;-75
2021/12/11 10:17:48;;;;;;;11.65;10.55;;;4.40;99.90;;;;;;4993016;28;20293;-75
2021/12/11 10:20:20;;;;;;;10.65;9.75;;;4.40;99.90;;;;;;5010778;28;20546;-75
2021/12/11 10:22:50;;;;;;;11.88;10.68;;;4.30;99.90;;;;;;4995647;28;20201;-78
2021/12/11 10:25:20;;;;;;;9.90;9.00;;;4.30;99.90;;;;;;4996310;28;20234;-76
2021/12/11 10:27:48;;;;;;;10.50;9.60;;;4.30;99.90;;;;;;4989547;28;20238;-75
2021/12/11 10:30:23;;;;;;;10.00;9.10;;;4.20;99.90;;;;;;4999566;28;20209;-76
2021/12/11 10:32:50;;;;;;;10.88;9.80;;;4.20;99.90;;;;;;5002304;28;20198;-76
2021/12/11 10:35:23;;;;;;;11.20;10.30;;;4.20;99.90;;;;;;5001504;28;20245;-76
2021/12/11 10:37:50;;;;;;;10.48;9.45;;;4.30;99.90;;;;;;5001987;28;20269;-76
2021/12/11 10:40:21;;;;;;;10.18;9.35;;;4.30;99.90;;;;;;4996810;28;20238;-76
2021/12/11 10:42:54;;;;;;;10.35;8.77;;;4.40;99.90;;;;;;5006001;28;20195;-76
2021/12/11 10:45:24;;;;;;;8.77;7.90;;;4.50;99.90;;;;;;5004375;28;20234;-76
2021/12/11 10:47:55;;;;;;;10.07;9.10;;;4.60;99.90;;;;;;4993654;28;20281;-76
2021/12/11 10:50:28;;;;;;;9.88;8.88;;;4.60;99.90;;;;;;5000519;28;20579;-76
2021/12/11 10:52:55;;;;;;;8.45;7.75;;;4.70;99.90;;;;;;5004579;28;20198;-76
2021/12/11 10:55:28;;;;;;;7.93;7.22;;;4.60;99.90;;;;;;5000853;28;20221;-75
2021/12/11 10:57:56;;;;;;;8.20;7.40;;;4.60;99.90;;;;;;4994820;28;20202;-75
2021/12/11 11:00:29;;;;;;;9.10;8.13;;;4.50;99.90;;;;;;4993116;28;20195;-75
2021/12/11 11:02:56;;;;;;;8.95;8.10;;;4.50;99.90;;;;;;4998952;28;20207;-76
2021/12/11 11:05:26;;;;;;;8.90;8.05;;;4.50;99.90;;;;;;4998358;28;20658;-75
2021/12/11 11:07:53;;;;;;;9.30;8.50;;;4.60;99.90;;;;;;5001678;28;20194;-75
2021/12/11 11:10:23;;;;;;;8.48;7.68;;;4.60;99.90;;;;;;4998347;28;20195;-76
2021/12/11 11:12:53;;;;;;;9.43;8.57;;;4.70;99.90;;;;;;4998910;28;20199;-75
2021/12/11 11:15:23;;;;;;;8.82;7.93;;;4.80;99.90;;;;;;4998341;28;20218;-75
2021/12/11 11:17:52;;;;;;;9.10;8.20;;;4.90;99.90;;;;;;4993199;28;20230;-75
2021/12/11 11:20:27;;;;;;;8.65;7.85;;;5.00;99.90;;;;;;4990399;28;20207;-76
2021/12/11 11:22:54;;;;;;;8.20;7.50;;;5.10;99.90;;;;;;4994192;28;20205;-75
2021/12/11 11:25:24;;;;;;;8.52;7.80;;;5.10;99.90;;;;;;4998109;28;20246;-75
2021/12/11 11:27:57;;;;;;;8.85;8.05;;;5.30;99.90;;;;;;4995037;28;20209;-75
2021/12/11 11:30:29;;;;;;;8.70;8.00;;;5.40;99.90;;;;;;4993770;28;20202;-75
2021/12/11 11:32:58;;;;;;;8.70;8.00;;;5.50;99.90;;;;;;4991017;28;20231;-75
2021/12/11 11:35:27;;;;;;;9.23;8.50;;;5.40;99.90;;;;;;5004759;28;20229;-75
2021/12/11 11:37:58;;;;;;;8.38;7.68;;;5.40;99.90;;;;;;5001247;28;20302;-75
2021/12/11 11:40:28;;;;;;;8.70;8.00;;;5.30;99.90;;;;;;4995634;28;20200;-74
2021/12/11 11:42:57;;;;;;;8.88;8.07;;;5.40;99.90;;;;;;4996305;28;20199;-75
2021/12/11 11:45:25;;;;;;;7.93;7.32;;;5.50;99.90;;;;;;4996436;28;20253;-74
2021/12/11 11:47:54;;;;;;;8.73;8.02;;;5.30;99.90;;;;;;4997280;28;20270;-75
2021/12/11 11:50:26;;;;;;;7.82;7.13;;;5.40;99.90;;;;;;4997071;28;20206;-75
2021/12/11 11:52:53;;;;;;;7.53;6.82;;;5.60;99.90;;;;;;4999104;28;20269;-74
2021/12/11 11:55:26;;;;;;;8.00;7.28;;;5.80;99.90;;;;;;4993607;28;20222;-75
2021/12/11 11:57:55;;;;;;;7.70;7.10;;;6.20;99.90;;;;;;4996023;28;20710;-73
2021/12/11 12:00:25;;;;;;;7.85;7.15;;;6.40;99.90;;;;;;4997239;28;20214;-74
2021/12/11 12:02:53;;;;;;;9.48;8.57;;;6.20;99.90;;;;;;4990924;28;20313;-74
2021/12/11 12:05:21;;;;;;;8.75;8.05;;;6.00;99.90;;;;;;4993080;28;20229;-75
2021/12/11 12:07:49;;;;;;;8.45;7.75;;;5.70;99.90;;;;;;5003596;28;20709;-75
2021/12/11 12:10:19;;;;;;;8.23;7.53;;;5.50;99.90;;;;;;4997209;28;20202;-76
2021/12/11 12:12:47;;;;;;;8.40;7.70;;;5.20;99.90;;;;;;4988001;28;20192;-76
2021/12/11 12:15:20;;;;;;;9.00;8.20;;;4.90;99.90;;;;;;4999161;28;20227;-75
2021/12/11 12:17:47;;;;;;;8.52;7.72;;;4.90;99.90;;;;;;5004402;28;20201;-75
2021/12/11 12:20:17;;;;;;;10.30;9.20;;;4.70;99.90;;;;;;5001778;28;20218;-75
2021/12/11 12:22:46;;;;;;;9.48;8.57;;;4.70;99.90;;;;;;5001814;28;20222;-75
2021/12/11 12:25:15;;;;;;;9.43;8.63;;;4.70;99.90;;;;;;4996710;28;20239;-75
2021/12/11 12:27:43;;;;;;;9.20;8.30;;;4.80;99.90;;;;;;5006331;28;20213;-76
2021/12/11 12:30:15;;;;;;;9.30;8.50;;;4.80;99.90;;;;;;4997417;28;20285;-76
2021/12/11 12:32:42;;;;;;;9.77;8.90;;;4.90;99.90;;;;;;4995709;28;20286;-76
2021/12/11 12:35:13;;;;;;;9.13;8.27;;;5.20;99.90;;;;;;5007645;28;20230;-76
2021/12/11 12:37:41;;;;;;;8.32;7.53;;;5.50;99.90;;;;;;5008564;28;20222;-75
2021/12/11 12:40:12;;;;;;;9.15;8.25;;;5.60;99.90;;;;;;4996681;28;20202;-76
2021/12/11 12:42:51;;;;;;;10.50;8.98;;;5.60;99.90;;;;;;4992128;28;20289;-75
2021/12/11 12:45:21;;;;;;;9.50;8.55;;;5.40;99.90;;;;;;5001121;28;20291;-76
2021/12/11 12:47:54;;;;;;;9.07;8.25;;;5.30;99.90;;;;;;5005269;28;20198;-75
2021/12/11 12:50:25;;;;;;;9.50;8.70;;;5.20;99.90;;;;;;4997477;28;20221;-76
2021/12/11 12:52:52;;;;;;;10.90;9.90;;;5.10;99.90;;;;;;4998754;28;20205;-75
2021/12/11 12:55:23;;;;;;;10.40;9.50;;;5.00;99.90;;;;;;4997060;28;20310;-75
2021/12/11 12:57:55;;;;;;;10.50;9.60;;;5.10;99.90;;;;;;5000659;28;20203;-75
2021/12/11 13:00:26;;;;;;;11.18;10.27;;;5.10;99.90;;;;;;5002275;28;20240;-75
2021/12/11 13:03:00;;;;;;;10.60;9.80;;;5.30;99.90;;;;;;4995131;28;20221;-75
2021/12/11 13:05:35;;;;;;;11.00;9.90;;;5.40;99.90;;;;;;5003466;28;20287;-75
2021/12/11 13:08:09;;;;;;;12.02;10.93;;;5.60;99.90;;;;;;5006810;28;20198;-75